sensor_id;sensor_type;location;lat;lon;timestamp;P1;durP1;ratioP1;P2;durP2;ratioP2
81265;SDS011;70748;52.510;13.410;2023-08-24T00:00:55;0.00;;;0.00;;
81265;SDS011;70748;52.510;13.410;2023-08-24T00:03:21;0.05;;;0.05;;
81265;SDS011;70748;52.510;13.410;2023-08-24T00:05:47;0.08;;;0.08;;
81265;SDS011;70748;52.510;13.410;2023-08-24T00:08:13;0.10;;;0.10;;
81265;SDS011;70748;52.510;13.410;2023-08-24T00:10:39;0.10;;;0.10;;
81265;SDS011;70748;52.510;13.410;2023-08-24T00:13:04;0.10;;;0.10;;
81265;SDS011;70748;52.510;13.410;2023-08-24T00:15:30;0.10;;;0.10;;
81265;SDS011;70748;52.510;13.410;2023-08-24T00:17:56;0.10;;;0.10;;
81265;SDS011;70748;52.510;13.410;2023-08-24T00:20:22;0.10;;;0.10;;
81265;SDS011;70748;52.510;13.410;2023-08-24T00:22:48;0.00;;;0.00;;
81265;SDS011;70748;52.510;13.410;2023-08-24T00:25:14;0.00;;;0.00;;
81265;SDS011;70748;52.510;13.410;2023-08-24T00:27:40;0.00;;;0.00;;
81265;SDS011;70748;52.510;13.410;2023-08-24T00:30:06;0.15;;;0.15;;
81265;SDS011;70748;52.510;13.410;2023-08-24T00:32:35;0.05;;;0.05;;
81265;SDS011;70748;52.510;13.410;2023-08-24T00:35:02;0.10;;;0.10;;
81265;SDS011;70748;52.510;13.410;2023-08-24T00:37:30;0.10;;;0.10;;
81265;SDS011;70748;52.510;13.410;2023-08-24T00:39:57;0.10;;;0.10;;
81265;SDS011;70748;52.510;13.410;2023-08-24T00:42:24;0.03;;;0.03;;
81265;SDS011;70748;52.510;13.410;2023-08-24T00:44:51;0.00;;;0.00;;
81265;SDS011;70748;52.510;13.410;2023-08-24T00:47:17;0.10;;;0.10;;
81265;SDS011;70748;52.510;13.410;2023-08-24T00:49:43;0.10;;;0.10;;
81265;SDS011;70748;52.510;13.410;2023-08-24T00:52:08;0.10;;;0.10;;
81265;SDS011;70748;52.510;13.410;2023-08-24T00:54:35;0.10;;;0.10;;
81265;SDS011;70748;52.510;13.410;2023-08-24T00:57:04;0.10;;;0.10;;
81265;SDS011;70748;52.510;13.410;2023-08-24T00:59:31;0.10;;;0.10;;
81265;SDS011;70748;52.510;13.410;2023-08-24T01:01:57;0.00;;;0.00;;
81265;SDS011;70748;52.510;13.410;2023-08-24T01:04:24;0.10;;;0.10;;
81265;SDS011;70748;52.510;13.410;2023-08-24T01:06:50;0.10;;;0.10;;
81265;SDS011;70748;52.510;13.410;2023-08-24T01:09:17;0.00;;;0.00;;
81265;SDS011;70748;52.510;13.410;2023-08-24T01:17:09;0.05;;;0.05;;
81265;SDS011;70748;52.510;13.410;2023-08-24T01:19:39;0.10;;;0.10;;
81265;SDS011;70748;52.510;13.410;2023-08-24T01:22:10;0.10;;;0.10;;
81265;SDS011;70748;52.510;13.410;2023-08-24T01:25:06;0.10;;;0.10;;
81265;SDS011;70748;52.510;13.410;2023-08-24T01:27:42;0.10;;;0.10;;
81265;SDS011;70748;52.510;13.410;2023-08-24T01:30:08;0.00;;;0.00;;
81265;SDS011;70748;52.510;13.410;2023-08-24T01:32:35;0.10;;;0.10;;
81265;SDS011;70748;52.510;13.410;2023-08-24T01:35:02;0.10;;;0.10;;
81265;SDS011;70748;52.510;13.410;2023-08-24T01:37:29;0.10;;;0.10;;
81265;SDS011;70748;52.510;13.410;2023-08-24T01:40:09;0.08;;;0.08;;
81265;SDS011;70748;52.510;13.410;2023-08-24T01:42:58;0.10;;;0.10;;
81265;SDS011;70748;52.510;13.410;2023-08-24T01:45:28;0.10;;;0.10;;
81265;SDS011;70748;52.510;13.410;2023-08-24T01:47:56;0.10;;;0.10;;
81265;SDS011;70748;52.510;13.410;2023-08-24T01:50:24;0.10;;;0.10;;
81265;SDS011;70748;52.510;13.410;2023-08-24T01:52:50;0.10;;;0.10;;
81265;SDS011;70748;52.510;13.410;2023-08-24T01:55:19;0.05;;;0.05;;
81265;SDS011;70748;52.510;13.410;2023-08-24T01:57:46;0.10;;;0.10;;
81265;SDS011;70748;52.510;13.410;2023-08-24T02:00:13;0.10;;;0.10;;
81265;SDS011;70748;52.510;13.410;2023-08-24T02:02:39;0.10;;;0.10;;
81265;SDS011;70748;52.510;13.410;2023-08-24T02:05:05;0.10;;;0.10;;
81265;SDS011;70748;52.510;13.410;2023-08-24T02:07:31;0.10;;;0.10;;
81265;SDS011;70748;52.510;13.410;2023-08-24T02:09:56;0.03;;;0.03;;
81265;SDS011;70748;52.510;13.410;2023-08-24T02:12:22;0.05;;;0.05;;
81265;SDS011;70748;52.510;13.410;2023-08-24T02:14:48;0.00;;;0.00;;
81265;SDS011;70748;52.510;13.410;2023-08-24T02:17:13;0.10;;;0.10;;
81265;SDS011;70748;52.510;13.410;2023-08-24T02:19:39;0.10;;;0.10;;
81265;SDS011;70748;52.510;13.410;2023-08-24T02:22:06;0.10;;;0.10;;
81265;SDS011;70748;52.510;13.410;2023-08-24T02:24:32;0.10;;;0.10;;
81265;SDS011;70748;52.510;13.410;2023-08-24T02:26:58;0.10;;;0.10;;
81265;SDS011;70748;52.510;13.410;2023-08-24T02:29:24;0.10;;;0.10;;
81265;SDS011;70748;52.510;13.410;2023-08-24T02:31:50;0.10;;;0.10;;
81265;SDS011;70748;52.510;13.410;2023-08-24T02:34:16;0.20;;;0.20;;
81265;SDS011;70748;52.510;13.410;2023-08-24T02:36:42;0.00;;;0.00;;
81265;SDS011;70748;52.510;13.410;2023-08-24T02:39:08;0.10;;;0.10;;
81265;SDS011;70748;52.510;13.410;2023-08-24T02:41:34;0.10;;;0.10;;
81265;SDS011;70748;52.510;13.410;2023-08-24T02:44:00;0.10;;;0.10;;
81265;SDS011;70748;52.510;13.410;2023-08-24T02:46:26;0.10;;;0.10;;
81265;SDS011;70748;52.510;13.410;2023-08-24T02:48:51;0.10;;;0.10;;
81265;SDS011;70748;52.510;13.410;2023-08-24T02:51:17;0.10;;;0.10;;
81265;SDS011;70748;52.510;13.410;2023-08-24T02:53:46;0.10;;;0.10;;
81265;SDS011;70748;52.510;13.410;2023-08-24T02:56:11;0.10;;;0.10;;
81265;SDS011;70748;52.510;13.410;2023-08-24T02:58:38;0.10;;;0.10;;
81265;SDS011;70748;52.510;13.410;2023-08-24T03:01:04;0.10;;;0.10;;
81265;SDS011;70748;52.510;13.410;2023-08-24T03:03:32;0.10;;;0.10;;
81265;SDS011;70748;52.510;13.410;2023-08-24T03:06:01;0.00;;;0.00;;
81265;SDS011;70748;52.510;13.410;2023-08-24T03:08:29;0.10;;;0.10;;
81265;SDS011;70748;52.510;13.410;2023-08-24T03:10:56;0.10;;;0.10;;
81265;SDS011;70748;52.510;13.410;2023-08-24T03:13:22;0.10;;;0.10;;
81265;SDS011;70748;52.510;13.410;2023-08-24T03:15:48;0.10;;;0.10;;
81265;SDS011;70748;52.510;13.410;2023-08-24T03:18:15;0.10;;;0.10;;
81265;SDS011;70748;52.510;13.410;2023-08-24T03:20:41;0.10;;;0.10;;
81265;SDS011;70748;52.510;13.410;2023-08-24T03:23:08;0.10;;;0.10;;
81265;SDS011;70748;52.510;13.410;2023-08-24T03:25:38;0.10;;;0.10;;
81265;SDS011;70748;52.510;13.410;2023-08-24T03:28:06;0.10;;;0.10;;
81265;SDS011;70748;52.510;13.410;2023-08-24T03:30:37;0.10;;;0.10;;
81265;SDS011;70748;52.510;13.410;2023-08-24T03:33:04;0.10;;;0.10;;
81265;SDS011;70748;52.510;13.410;2023-08-24T03:35:30;0.20;;;0.20;;
81265;SDS011;70748;52.510;13.410;2023-08-24T03:37:57;0.00;;;0.00;;
81265;SDS011;70748;52.510;13.410;2023-08-24T03:40:22;0.10;;;0.10;;
81265;SDS011;70748;52.510;13.410;2023-08-24T03:42:49;0.00;;;0.00;;
81265;SDS011;70748;52.510;13.410;2023-08-24T03:45:15;0.10;;;0.10;;
81265;SDS011;70748;52.510;13.410;2023-08-24T03:47:40;0.10;;;0.10;;
81265;SDS011;70748;52.510;13.410;2023-08-24T03:50:06;0.10;;;0.10;;
81265;SDS011;70748;52.510;13.410;2023-08-24T03:52:32;0.00;;;0.00;;
81265;SDS011;70748;52.510;13.410;2023-08-24T03:54:58;0.00;;;0.00;;
81265;SDS011;70748;52.510;13.410;2023-08-24T03:57:23;0.10;;;0.10;;
81265;SDS011;70748;52.510;13.410;2023-08-24T03:59:49;0.10;;;0.10;;
81265;SDS011;70748;52.510;13.410;2023-08-24T04:02:15;0.10;;;0.10;;
81265;SDS011;70748;52.510;13.410;2023-08-24T04:04:41;0.10;;;0.10;;
81265;SDS011;70748;52.510;13.410;2023-08-24T04:07:07;0.10;;;0.10;;
81265;SDS011;70748;52.510;13.410;2023-08-24T04:09:32;0.10;;;0.10;;
81265;SDS011;70748;52.510;13.410;2023-08-24T04:11:58;0.00;;;0.00;;
81265;SDS011;70748;52.510;13.410;2023-08-24T04:14:24;0.17;;;0.17;;
81265;SDS011;70748;52.510;13.410;2023-08-24T04:16:49;0.10;;;0.10;;
81265;SDS011;70748;52.510;13.410;2023-08-24T04:19:15;0.10;;;0.10;;
81265;SDS011;70748;52.510;13.410;2023-08-24T04:21:41;0.10;;;0.10;;
81265;SDS011;70748;52.510;13.410;2023-08-24T04:24:06;0.10;;;0.10;;
81265;SDS011;70748;52.510;13.410;2023-08-24T04:26:32;0.08;;;0.08;;
81265;SDS011;70748;52.510;13.410;2023-08-24T04:28:58;0.10;;;0.10;;
81265;SDS011;70748;52.510;13.410;2023-08-24T04:31:24;0.10;;;0.10;;
81265;SDS011;70748;52.510;13.410;2023-08-24T04:33:49;0.10;;;0.10;;
81265;SDS011;70748;52.510;13.410;2023-08-24T04:36:15;0.10;;;0.10;;
81265;SDS011;70748;52.510;13.410;2023-08-24T04:38:41;0.15;;;0.15;;
81265;SDS011;70748;52.510;13.410;2023-08-24T04:41:08;0.10;;;0.10;;
81265;SDS011;70748;52.510;13.410;2023-08-24T04:43:34;0.10;;;0.10;;
81265;SDS011;70748;52.510;13.410;2023-08-24T04:46:01;0.10;;;0.10;;
81265;SDS011;70748;52.510;13.410;2023-08-24T04:48:27;0.10;;;0.10;;
81265;SDS011;70748;52.510;13.410;2023-08-24T04:50:57;0.10;;;0.10;;
81265;SDS011;70748;52.510;13.410;2023-08-24T04:53:23;0.10;;;0.10;;
81265;SDS011;70748;52.510;13.410;2023-08-24T04:55:49;0.10;;;0.10;;
81265;SDS011;70748;52.510;13.410;2023-08-24T04:58:15;0.10;;;0.10;;
81265;SDS011;70748;52.510;13.410;2023-08-24T05:00:41;0.10;;;0.10;;
81265;SDS011;70748;52.510;13.410;2023-08-24T05:03:07;0.08;;;0.08;;
81265;SDS011;70748;52.510;13.410;2023-08-24T05:05:34;0.10;;;0.10;;
81265;SDS011;70748;52.510;13.410;2023-08-24T05:08:01;0.10;;;0.10;;
81265;SDS011;70748;52.510;13.410;2023-08-24T05:10:31;0.10;;;0.10;;
81265;SDS011;70748;52.510;13.410;2023-08-24T05:12:57;0.10;;;0.10;;
81265;SDS011;70748;52.510;13.410;2023-08-24T05:15:23;0.00;;;0.00;;
81265;SDS011;70748;52.510;13.410;2023-08-24T05:17:49;0.10;;;0.10;;
81265;SDS011;70748;52.510;13.410;2023-08-24T05:20:17;0.10;;;0.10;;
81265;SDS011;70748;52.510;13.410;2023-08-24T05:22:43;0.10;;;0.10;;
81265;SDS011;70748;52.510;13.410;2023-08-24T05:25:09;0.10;;;0.10;;
81265;SDS011;70748;52.510;13.410;2023-08-24T05:27:34;0.10;;;0.10;;
81265;SDS011;70748;52.510;13.410;2023-08-24T05:30:01;0.10;;;0.10;;
81265;SDS011;70748;52.510;13.410;2023-08-24T05:32:27;0.10;;;0.10;;
81265;SDS011;70748;52.510;13.410;2023-08-24T05:34:53;0.10;;;0.10;;
81265;SDS011;70748;52.510;13.410;2023-08-24T05:37:18;0.05;;;0.05;;
81265;SDS011;70748;52.510;13.410;2023-08-24T05:39:44;0.10;;;0.10;;
81265;SDS011;70748;52.510;13.410;2023-08-24T05:42:10;0.03;;;0.03;;
81265;SDS011;70748;52.510;13.410;2023-08-24T05:44:35;0.10;;;0.10;;
81265;SDS011;70748;52.510;13.410;2023-08-24T05:47:01;0.00;;;0.00;;
81265;SDS011;70748;52.510;13.410;2023-08-24T05:49:27;0.05;;;0.05;;
81265;SDS011;70748;52.510;13.410;2023-08-24T05:51:53;0.03;;;0.03;;
81265;SDS011;70748;52.510;13.410;2023-08-24T05:54:19;0.10;;;0.10;;
81265;SDS011;70748;52.510;13.410;2023-08-24T05:56:45;0.10;;;0.10;;
81265;SDS011;70748;52.510;13.410;2023-08-24T05:59:11;0.10;;;0.10;;
81265;SDS011;70748;52.510;13.410;2023-08-24T06:01:36;0.00;;;0.00;;
81265;SDS011;70748;52.510;13.410;2023-08-24T06:04:06;0.10;;;0.10;;
81265;SDS011;70748;52.510;13.410;2023-08-24T06:06:32;0.10;;;0.10;;
81265;SDS011;70748;52.510;13.410;2023-08-24T06:08:58;0.10;;;0.10;;
81265;SDS011;70748;52.510;13.410;2023-08-24T06:11:24;0.25;;;0.10;;
81265;SDS011;70748;52.510;13.410;2023-08-24T06:13:49;0.00;;;0.00;;
81265;SDS011;70748;52.510;13.410;2023-08-24T06:16:18;0.10;;;0.10;;
81265;SDS011;70748;52.510;13.410;2023-08-24T06:18:44;0.05;;;0.05;;
81265;SDS011;70748;52.510;13.410;2023-08-24T06:21:10;0.10;;;0.10;;
81265;SDS011;70748;52.510;13.410;2023-08-24T06:23:35;0.10;;;0.10;;
81265;SDS011;70748;52.510;13.410;2023-08-24T06:26:01;0.10;;;0.10;;
81265;SDS011;70748;52.510;13.410;2023-08-24T06:28:27;0.00;;;0.00;;
81265;SDS011;70748;52.510;13.410;2023-08-24T06:30:54;0.15;;;0.15;;
81265;SDS011;70748;52.510;13.410;2023-08-24T06:33:20;0.20;;;0.20;;
81265;SDS011;70748;52.510;13.410;2023-08-24T06:35:46;0.10;;;0.10;;
81265;SDS011;70748;52.510;13.410;2023-08-24T06:38:12;0.10;;;0.10;;
81265;SDS011;70748;52.510;13.410;2023-08-24T06:40:38;0.00;;;0.00;;
81265;SDS011;70748;52.510;13.410;2023-08-24T06:43:04;0.10;;;0.10;;
81265;SDS011;70748;52.510;13.410;2023-08-24T06:45:30;0.10;;;0.10;;
81265;SDS011;70748;52.510;13.410;2023-08-24T06:47:56;0.10;;;0.10;;
81265;SDS011;70748;52.510;13.410;2023-08-24T06:50:22;0.20;;;0.20;;
81265;SDS011;70748;52.510;13.410;2023-08-24T06:52:48;0.10;;;0.10;;
81265;SDS011;70748;52.510;13.410;2023-08-24T06:55:13;0.17;;;0.17;;
81265;SDS011;70748;52.510;13.410;2023-08-24T06:57:39;0.20;;;0.20;;
81265;SDS011;70748;52.510;13.410;2023-08-24T07:00:06;0.20;;;0.20;;
81265;SDS011;70748;52.510;13.410;2023-08-24T07:02:35;0.13;;;0.13;;
81265;SDS011;70748;52.510;13.410;2023-08-24T07:05:02;0.20;;;0.20;;
81265;SDS011;70748;52.510;13.410;2023-08-24T07:07:33;0.15;;;0.15;;
81265;SDS011;70748;52.510;13.410;2023-08-24T07:09:59;0.22;;;0.22;;
81265;SDS011;70748;52.510;13.410;2023-08-24T07:12:25;0.30;;;0.30;;
81265;SDS011;70748;52.510;13.410;2023-08-24T07:14:51;0.30;;;0.30;;
81265;SDS011;70748;52.510;13.410;2023-08-24T07:17:17;0.35;;;0.35;;
81265;SDS011;70748;52.510;13.410;2023-08-24T07:19:43;0.40;;;0.40;;
81265;SDS011;70748;52.510;13.410;2023-08-24T07:22:08;0.30;;;0.30;;
81265;SDS011;70748;52.510;13.410;2023-08-24T07:24:34;0.40;;;0.40;;
81265;SDS011;70748;52.510;13.410;2023-08-24T07:27:01;0.50;;;0.50;;
81265;SDS011;70748;52.510;13.410;2023-08-24T07:29:28;0.35;;;0.35;;
81265;SDS011;70748;52.510;13.410;2023-08-24T07:31:54;0.50;;;0.50;;
81265;SDS011;70748;52.510;13.410;2023-08-24T07:34:19;0.40;;;0.40;;
81265;SDS011;70748;52.510;13.410;2023-08-24T07:36:47;0.40;;;0.40;;
81265;SDS011;70748;52.510;13.410;2023-08-24T07:39:13;0.43;;;0.43;;
81265;SDS011;70748;52.510;13.410;2023-08-24T07:41:40;0.50;;;0.50;;
81265;SDS011;70748;52.510;13.410;2023-08-24T07:46:32;0.73;;;0.73;;
81265;SDS011;70748;52.510;13.410;2023-08-24T07:48:58;0.52;;;0.52;;
81265;SDS011;70748;52.510;13.410;2023-08-24T07:51:24;0.70;;;0.70;;
81265;SDS011;70748;52.510;13.410;2023-08-24T07:53:50;0.57;;;0.57;;
81265;SDS011;70748;52.510;13.410;2023-08-24T08:01:09;0.63;;;0.63;;
81265;SDS011;70748;52.510;13.410;2023-08-24T08:03:34;0.50;;;0.50;;
81265;SDS011;70748;52.510;13.410;2023-08-24T08:06:01;0.70;;;0.70;;
81265;SDS011;70748;52.510;13.410;2023-08-24T08:08:26;0.60;;;0.60;;
81265;SDS011;70748;52.510;13.410;2023-08-24T08:10:59;0.60;;;0.60;;
81265;SDS011;70748;52.510;13.410;2023-08-24T08:13:26;0.52;;;0.52;;
81265;SDS011;70748;52.510;13.410;2023-08-24T08:15:52;0.60;;;0.60;;
81265;SDS011;70748;52.510;13.410;2023-08-24T08:18:18;0.50;;;0.50;;
81265;SDS011;70748;52.510;13.410;2023-08-24T08:20:44;0.43;;;0.43;;
81265;SDS011;70748;52.510;13.410;2023-08-24T08:23:10;0.43;;;0.43;;
81265;SDS011;70748;52.510;13.410;2023-08-24T08:25:35;0.50;;;0.50;;
81265;SDS011;70748;52.510;13.410;2023-08-24T08:28:01;0.50;;;0.50;;
81265;SDS011;70748;52.510;13.410;2023-08-24T08:30:27;0.38;;;0.38;;
81265;SDS011;70748;52.510;13.410;2023-08-24T08:32:52;0.50;;;0.50;;
81265;SDS011;70748;52.510;13.410;2023-08-24T08:35:19;0.30;;;0.30;;
81265;SDS011;70748;52.510;13.410;2023-08-24T08:37:46;0.20;;;0.20;;
81265;SDS011;70748;52.510;13.410;2023-08-24T08:40:14;0.20;;;0.20;;
81265;SDS011;70748;52.510;13.410;2023-08-24T08:42:40;0.20;;;0.20;;
81265;SDS011;70748;52.510;13.410;2023-08-24T08:45:09;0.20;;;0.20;;
81265;SDS011;70748;52.510;13.410;2023-08-24T08:47:36;0.10;;;0.10;;
81265;SDS011;70748;52.510;13.410;2023-08-24T08:50:02;0.20;;;0.20;;
81265;SDS011;70748;52.510;13.410;2023-08-24T08:52:31;0.20;;;0.20;;
81265;SDS011;70748;52.510;13.410;2023-08-24T08:54:58;0.20;;;0.20;;
81265;SDS011;70748;52.510;13.410;2023-08-24T08:57:25;0.20;;;0.20;;
81265;SDS011;70748;52.510;13.410;2023-08-24T08:59:54;0.10;;;0.10;;
81265;SDS011;70748;52.510;13.410;2023-08-24T09:02:20;0.20;;;0.20;;
81265;SDS011;70748;52.510;13.410;2023-08-24T09:04:48;0.10;;;0.10;;
81265;SDS011;70748;52.510;13.410;2023-08-24T09:09:42;0.20;;;0.20;;
81265;SDS011;70748;52.510;13.410;2023-08-24T09:12:08;0.20;;;0.20;;
81265;SDS011;70748;52.510;13.410;2023-08-24T09:14:34;0.10;;;0.10;;
81265;SDS011;70748;52.510;13.410;2023-08-24T09:16:59;0.13;;;0.13;;
81265;SDS011;70748;52.510;13.410;2023-08-24T09:19:28;0.20;;;0.20;;
81265;SDS011;70748;52.510;13.410;2023-08-24T09:21:59;0.20;;;0.20;;
81265;SDS011;70748;52.510;13.410;2023-08-24T09:24:33;0.20;;;0.20;;
81265;SDS011;70748;52.510;13.410;2023-08-24T09:27:18;0.30;;;0.30;;
81265;SDS011;70748;52.510;13.410;2023-08-24T09:29:48;0.20;;;0.20;;
81265;SDS011;70748;52.510;13.410;2023-08-24T09:32:15;0.22;;;0.22;;
81265;SDS011;70748;52.510;13.410;2023-08-24T09:34:47;0.25;;;0.25;;
81265;SDS011;70748;52.510;13.410;2023-08-24T09:37:15;0.20;;;0.20;;
81265;SDS011;70748;52.510;13.410;2023-08-24T09:39:42;0.22;;;0.22;;
81265;SDS011;70748;52.510;13.410;2023-08-24T09:42:08;0.28;;;0.28;;
81265;SDS011;70748;52.510;13.410;2023-08-24T09:44:33;0.30;;;0.30;;
81265;SDS011;70748;52.510;13.410;2023-08-24T09:46:59;0.30;;;0.30;;
81265;SDS011;70748;52.510;13.410;2023-08-24T09:49:25;0.30;;;0.30;;
81265;SDS011;70748;52.510;13.410;2023-08-24T09:51:54;0.30;;;0.30;;
81265;SDS011;70748;52.510;13.410;2023-08-24T09:54:27;0.40;;;0.40;;
81265;SDS011;70748;52.510;13.410;2023-08-24T09:56:54;0.52;;;0.52;;
81265;SDS011;70748;52.510;13.410;2023-08-24T09:59:23;0.60;;;0.60;;
81265;SDS011;70748;52.510;13.410;2023-08-24T10:01:52;0.55;;;0.55;;
81265;SDS011;70748;52.510;13.410;2023-08-24T10:04:22;0.50;;;0.50;;
81265;SDS011;70748;52.510;13.410;2023-08-24T10:07:06;0.70;;;0.70;;
81265;SDS011;70748;52.510;13.410;2023-08-24T10:09:43;0.75;;;0.75;;
81265;SDS011;70748;52.510;13.410;2023-08-24T10:12:09;0.80;;;0.80;;
81265;SDS011;70748;52.510;13.410;2023-08-24T10:17:04;0.65;;;0.65;;
81265;SDS011;70748;52.510;13.410;2023-08-24T10:19:31;0.88;;;0.88;;
81265;SDS011;70748;52.510;13.410;2023-08-24T10:21:57;0.70;;;0.70;;
81265;SDS011;70748;52.510;13.410;2023-08-24T10:24:26;0.85;;;0.85;;
81265;SDS011;70748;52.510;13.410;2023-08-24T10:31:45;0.60;;;0.60;;
81265;SDS011;70748;52.510;13.410;2023-08-24T10:34:11;0.63;;;0.63;;
81265;SDS011;70748;52.510;13.410;2023-08-24T10:36:40;0.93;;;0.93;;
81265;SDS011;70748;52.510;13.410;2023-08-24T10:39:06;0.82;;;0.82;;
81265;SDS011;70748;52.510;13.410;2023-08-24T10:41:48;0.90;;;0.90;;
81265;SDS011;70748;52.510;13.410;2023-08-24T10:44:25;0.77;;;0.77;;
81265;SDS011;70748;52.510;13.410;2023-08-24T10:49:37;0.90;;;0.90;;
81265;SDS011;70748;52.510;13.410;2023-08-24T10:52:19;0.70;;;0.70;;
81265;SDS011;70748;52.510;13.410;2023-08-24T10:54:48;1.00;;;1.00;;
81265;SDS011;70748;52.510;13.410;2023-08-24T10:57:19;0.77;;;0.77;;
81265;SDS011;70748;52.510;13.410;2023-08-24T10:59:59;0.90;;;0.90;;
81265;SDS011;70748;52.510;13.410;2023-08-24T11:02:30;0.82;;;0.82;;
81265;SDS011;70748;52.510;13.410;2023-08-24T11:07:53;0.60;;;0.60;;
81265;SDS011;70748;52.510;13.410;2023-08-24T11:10:24;0.70;;;0.70;;
81265;SDS011;70748;52.510;13.410;2023-08-24T11:15:41;0.80;;;0.80;;
81265;SDS011;70748;52.510;13.410;2023-08-24T11:18:13;0.80;;;0.80;;
81265;SDS011;70748;52.510;13.410;2023-08-24T11:20:49;0.90;;;0.90;;
81265;SDS011;70748;52.510;13.410;2023-08-24T11:23:24;0.88;;;0.88;;
81265;SDS011;70748;52.510;13.410;2023-08-24T11:25:51;0.88;;;0.88;;
81265;SDS011;70748;52.510;13.410;2023-08-24T11:28:21;0.63;;;0.63;;
81265;SDS011;70748;52.510;13.410;2023-08-24T11:30:47;0.75;;;0.75;;
81265;SDS011;70748;52.510;13.410;2023-08-24T11:33:14;0.80;;;0.80;;
81265;SDS011;70748;52.510;13.410;2023-08-24T11:35:43;0.70;;;0.70;;
81265;SDS011;70748;52.510;13.410;2023-08-24T11:38:10;0.60;;;0.60;;
81265;SDS011;70748;52.510;13.410;2023-08-24T11:40:36;0.60;;;0.60;;
81265;SDS011;70748;52.510;13.410;2023-08-24T11:43:02;0.70;;;0.70;;
81265;SDS011;70748;52.510;13.410;2023-08-24T11:45:35;0.68;;;0.68;;
81265;SDS011;70748;52.510;13.410;2023-08-24T11:48:02;0.73;;;0.73;;
81265;SDS011;70748;52.510;13.410;2023-08-24T11:50:29;0.50;;;0.50;;
81265;SDS011;70748;52.510;13.410;2023-08-24T11:55:22;0.63;;;0.63;;
81265;SDS011;70748;52.510;13.410;2023-08-24T11:57:48;0.65;;;0.65;;
81265;SDS011;70748;52.510;13.410;2023-08-24T12:00:15;0.80;;;0.80;;
81265;SDS011;70748;52.510;13.410;2023-08-24T12:02:42;0.65;;;0.65;;
81265;SDS011;70748;52.510;13.410;2023-08-24T12:05:08;0.50;;;0.50;;
81265;SDS011;70748;52.510;13.410;2023-08-24T12:07:45;0.80;;;0.80;;
81265;SDS011;70748;52.510;13.410;2023-08-24T12:10:12;0.80;;;0.80;;
81265;SDS011;70748;52.510;13.410;2023-08-24T12:12:38;0.50;;;0.50;;
81265;SDS011;70748;52.510;13.410;2023-08-24T12:15:03;0.70;;;0.70;;
81265;SDS011;70748;52.510;13.410;2023-08-24T12:20:07;0.70;;;0.70;;
81265;SDS011;70748;52.510;13.410;2023-08-24T12:22:37;0.77;;;0.77;;
81265;SDS011;70748;52.510;13.410;2023-08-24T12:25:03;0.60;;;0.60;;
81265;SDS011;70748;52.510;13.410;2023-08-24T12:27:30;0.52;;;0.52;;
81265;SDS011;70748;52.510;13.410;2023-08-24T12:29:59;0.60;;;0.60;;
81265;SDS011;70748;52.510;13.410;2023-08-24T12:32:30;0.60;;;0.60;;
81265;SDS011;70748;52.510;13.410;2023-08-24T12:35:10;0.50;;;0.50;;
81265;SDS011;70748;52.510;13.410;2023-08-24T12:37:36;0.47;;;0.47;;
81265;SDS011;70748;52.510;13.410;2023-08-24T12:40:02;0.35;;;0.35;;
81265;SDS011;70748;52.510;13.410;2023-08-24T12:42:31;0.50;;;0.50;;
81265;SDS011;70748;52.510;13.410;2023-08-24T12:44:57;0.40;;;0.40;;
81265;SDS011;70748;52.510;13.410;2023-08-24T12:47:23;0.50;;;0.50;;
81265;SDS011;70748;52.510;13.410;2023-08-24T12:49:48;0.50;;;0.50;;
81265;SDS011;70748;52.510;13.410;2023-08-24T12:52:15;0.40;;;0.40;;
81265;SDS011;70748;52.510;13.410;2023-08-24T12:54:41;0.43;;;0.43;;
81265;SDS011;70748;52.510;13.410;2023-08-24T12:57:07;0.47;;;0.47;;
81265;SDS011;70748;52.510;13.410;2023-08-24T12:59:33;0.50;;;0.50;;
81265;SDS011;70748;52.510;13.410;2023-08-24T13:01:59;0.43;;;0.43;;
81265;SDS011;70748;52.510;13.410;2023-08-24T13:04:25;0.50;;;0.50;;
81265;SDS011;70748;52.510;13.410;2023-08-24T13:06:53;0.50;;;0.50;;
81265;SDS011;70748;52.510;13.410;2023-08-24T13:09:18;0.57;;;0.57;;
81265;SDS011;70748;52.510;13.410;2023-08-24T13:11:44;0.55;;;0.55;;
81265;SDS011;70748;52.510;13.410;2023-08-24T13:14:10;0.40;;;0.40;;
81265;SDS011;70748;52.510;13.410;2023-08-24T13:16:35;0.50;;;0.50;;
81265;SDS011;70748;52.510;13.410;2023-08-24T13:19:01;0.30;;;0.30;;
81265;SDS011;70748;52.510;13.410;2023-08-24T13:21:27;0.20;;;0.20;;
81265;SDS011;70748;52.510;13.410;2023-08-24T13:23:53;0.30;;;0.30;;
81265;SDS011;70748;52.510;13.410;2023-08-24T13:26:19;0.30;;;0.30;;
81265;SDS011;70748;52.510;13.410;2023-08-24T13:28:49;0.13;;;0.13;;
81265;SDS011;70748;52.510;13.410;2023-08-24T13:31:16;0.30;;;0.30;;
81265;SDS011;70748;52.510;13.410;2023-08-24T13:33:42;0.15;;;0.15;;
81265;SDS011;70748;52.510;13.410;2023-08-24T13:36:07;0.20;;;0.20;;
81265;SDS011;70748;52.510;13.410;2023-08-24T13:38:33;0.10;;;0.10;;
81265;SDS011;70748;52.510;13.410;2023-08-24T13:40:58;0.20;;;0.20;;
81265;SDS011;70748;52.510;13.410;2023-08-24T13:43:24;0.20;;;0.20;;
81265;SDS011;70748;52.510;13.410;2023-08-24T13:45:50;0.20;;;0.20;;
81265;SDS011;70748;52.510;13.410;2023-08-24T13:48:16;0.10;;;0.10;;
81265;SDS011;70748;52.510;13.410;2023-08-24T13:50:48;0.10;;;0.10;;
81265;SDS011;70748;52.510;13.410;2023-08-24T13:53:15;0.25;;;0.25;;
81265;SDS011;70748;52.510;13.410;2023-08-24T13:55:41;0.10;;;0.10;;
81265;SDS011;70748;52.510;13.410;2023-08-24T13:58:08;0.17;;;0.17;;
81265;SDS011;70748;52.510;13.410;2023-08-24T14:00:33;0.20;;;0.20;;
81265;SDS011;70748;52.510;13.410;2023-08-24T14:02:59;0.10;;;0.10;;
81265;SDS011;70748;52.510;13.410;2023-08-24T14:05:24;0.15;;;0.15;;
81265;SDS011;70748;52.510;13.410;2023-08-24T14:07:50;0.10;;;0.10;;
81265;SDS011;70748;52.510;13.410;2023-08-24T14:10:16;0.10;;;0.10;;
81265;SDS011;70748;52.510;13.410;2023-08-24T14:12:43;0.10;;;0.10;;
81265;SDS011;70748;52.510;13.410;2023-08-24T14:15:09;0.17;;;0.17;;
81265;SDS011;70748;52.510;13.410;2023-08-24T14:17:36;0.10;;;0.10;;
81265;SDS011;70748;52.510;13.410;2023-08-24T14:20:02;0.15;;;0.15;;
81265;SDS011;70748;52.510;13.410;2023-08-24T14:22:29;0.10;;;0.10;;
81265;SDS011;70748;52.510;13.410;2023-08-24T14:24:55;0.13;;;0.13;;
81265;SDS011;70748;52.510;13.410;2023-08-24T14:27:20;0.15;;;0.15;;
81265;SDS011;70748;52.510;13.410;2023-08-24T14:29:46;0.10;;;0.10;;
81265;SDS011;70748;52.510;13.410;2023-08-24T14:32:12;0.20;;;0.20;;
81265;SDS011;70748;52.510;13.410;2023-08-24T14:34:37;0.20;;;0.20;;
81265;SDS011;70748;52.510;13.410;2023-08-24T14:37:03;0.20;;;0.20;;
81265;SDS011;70748;52.510;13.410;2023-08-24T14:39:29;0.20;;;0.20;;
81265;SDS011;70748;52.510;13.410;2023-08-24T14:41:55;0.10;;;0.10;;
81265;SDS011;70748;52.510;13.410;2023-08-24T14:44:20;0.10;;;0.10;;
81265;SDS011;70748;52.510;13.410;2023-08-24T14:46:46;0.10;;;0.10;;
81265;SDS011;70748;52.510;13.410;2023-08-24T14:49:12;0.20;;;0.20;;
81265;SDS011;70748;52.510;13.410;2023-08-24T14:51:43;0.10;;;0.10;;
81265;SDS011;70748;52.510;13.410;2023-08-24T14:54:09;0.10;;;0.10;;
81265;SDS011;70748;52.510;13.410;2023-08-24T14:56:37;0.10;;;0.10;;
81265;SDS011;70748;52.510;13.410;2023-08-24T14:59:02;0.20;;;0.20;;
81265;SDS011;70748;52.510;13.410;2023-08-24T15:01:28;0.10;;;0.10;;
81265;SDS011;70748;52.510;13.410;2023-08-24T15:03:54;0.20;;;0.20;;
81265;SDS011;70748;52.510;13.410;2023-08-24T15:06:20;0.10;;;0.10;;
81265;SDS011;70748;52.510;13.410;2023-08-24T15:08:46;0.10;;;0.10;;